sensor_id;sensor_type;location;lat;lon;timestamp;P1;durP1;ratioP1;P2;durP2;ratioP2
69358;SDS011;56520;49.066;8.660;2023-11-21T00:01:51;1.40;;;0.50;;
69358;SDS011;56520;49.066;8.660;2023-11-21T00:04:17;2.13;;;0.70;;
69358;SDS011;56520;49.066;8.660;2023-11-21T00:06:42;2.45;;;0.70;;
69358;SDS011;56520;49.066;8.660;2023-11-21T00:09:08;1.90;;;0.43;;
69358;SDS011;56520;49.066;8.660;2023-11-21T00:11:34;2.22;;;0.60;;
69358;SDS011;56520;49.066;8.660;2023-11-21T00:14:00;1.88;;;0.40;;
69358;SDS011;56520;49.066;8.660;2023-11-21T00:16:25;1.65;;;0.70;;
69358;SDS011;56520;49.066;8.660;2023-11-21T00:18:51;1.73;;;0.50;;
69358;SDS011;56520;49.066;8.660;2023-11-21T00:21:16;0.82;;;0.40;;
69358;SDS011;56520;49.066;8.660;2023-11-21T00:23:42;0.98;;;0.50;;
69358;SDS011;56520;49.066;8.660;2023-11-21T00:26:07;1.45;;;0.32;;
69358;SDS011;56520;49.066;8.660;2023-11-21T00:28:33;1.85;;;0.70;;
69358;SDS011;56520;49.066;8.660;2023-11-21T00:30:58;2.47;;;0.55;;
69358;SDS011;56520;49.066;8.660;2023-11-21T00:33:23;1.45;;;0.52;;
69358;SDS011;56520;49.066;8.660;2023-11-21T00:35:50;4.22;;;0.47;;
69358;SDS011;56520;49.066;8.660;2023-11-21T00:38:15;1.65;;;0.43;;
69358;SDS011;56520;49.066;8.660;2023-11-21T00:40:44;1.58;;;0.40;;
69358;SDS011;56520;49.066;8.660;2023-11-21T00:43:10;0.57;;;0.22;;
69358;SDS011;56520;49.066;8.660;2023-11-21T00:45:35;1.42;;;0.47;;
69358;SDS011;56520;49.066;8.660;2023-11-21T00:48:01;4.00;;;0.88;;
69358;SDS011;56520;49.066;8.660;2023-11-21T00:50:29;0.82;;;0.30;;
69358;SDS011;56520;49.066;8.660;2023-11-21T00:52:54;2.33;;;0.50;;
69358;SDS011;56520;49.066;8.660;2023-11-21T00:55:20;2.78;;;0.60;;
69358;SDS011;56520;49.066;8.660;2023-11-21T00:57:46;2.42;;;0.70;;
69358;SDS011;56520;49.066;8.660;2023-11-21T01:00:11;2.65;;;0.40;;
69358;SDS011;56520;49.066;8.660;2023-11-21T01:02:42;1.25;;;0.50;;
69358;SDS011;56520;49.066;8.660;2023-11-21T01:05:10;0.73;;;0.52;;
69358;SDS011;56520;49.066;8.660;2023-11-21T01:07:35;1.42;;;0.35;;
69358;SDS011;56520;49.066;8.660;2023-11-21T01:10:02;2.22;;;0.43;;
69358;SDS011;56520;49.066;8.660;2023-11-21T01:12:30;5.10;;;0.50;;
69358;SDS011;56520;49.066;8.660;2023-11-21T01:14:56;0.88;;;0.30;;
69358;SDS011;56520;49.066;8.660;2023-11-21T01:17:25;4.57;;;0.65;;
69358;SDS011;56520;49.066;8.660;2023-11-21T01:19:50;1.02;;;0.40;;
69358;SDS011;56520;49.066;8.660;2023-11-21T01:22:15;1.17;;;0.40;;
69358;SDS011;56520;49.066;8.660;2023-11-21T01:24:41;1.08;;;0.47;;
69358;SDS011;56520;49.066;8.660;2023-11-21T01:27:06;1.23;;;0.47;;
69358;SDS011;56520;49.066;8.660;2023-11-21T01:29:32;2.42;;;0.75;;
69358;SDS011;56520;49.066;8.660;2023-11-21T01:31:57;1.95;;;0.60;;
69358;SDS011;56520;49.066;8.660;2023-11-21T01:34:23;2.35;;;0.77;;
69358;SDS011;56520;49.066;8.660;2023-11-21T01:36:48;1.20;;;0.45;;
69358;SDS011;56520;49.066;8.660;2023-11-21T01:39:14;1.73;;;0.50;;
69358;SDS011;56520;49.066;8.660;2023-11-21T01:41:41;1.45;;;0.45;;
69358;SDS011;56520;49.066;8.660;2023-11-21T01:44:09;1.65;;;0.40;;
69358;SDS011;56520;49.066;8.660;2023-11-21T01:46:35;1.20;;;0.40;;
69358;SDS011;56520;49.066;8.660;2023-11-21T01:49:00;1.42;;;0.50;;
69358;SDS011;56520;49.066;8.660;2023-11-21T01:51:26;1.10;;;0.50;;
69358;SDS011;56520;49.066;8.660;2023-11-21T01:53:51;1.75;;;0.45;;
69358;SDS011;56520;49.066;8.660;2023-11-21T01:56:17;2.03;;;0.60;;
69358;SDS011;56520;49.066;8.660;2023-11-21T01:58:43;0.98;;;0.40;;
69358;SDS011;56520;49.066;8.660;2023-11-21T02:01:09;5.13;;;0.50;;
69358;SDS011;56520;49.066;8.660;2023-11-21T02:03:35;0.90;;;0.40;;
69358;SDS011;56520;49.066;8.660;2023-11-21T02:06:00;4.03;;;0.60;;
69358;SDS011;56520;49.066;8.660;2023-11-21T02:08:26;0.73;;;0.40;;
69358;SDS011;56520;49.066;8.660;2023-11-21T02:10:52;3.08;;;0.60;;
69358;SDS011;56520;49.066;8.660;2023-11-21T02:13:17;2.00;;;0.70;;
69358;SDS011;56520;49.066;8.660;2023-11-21T02:15:42;4.75;;;0.63;;
69358;SDS011;56520;49.066;8.660;2023-11-21T02:18:08;1.98;;;0.47;;
69358;SDS011;56520;49.066;8.660;2023-11-21T02:20:36;5.65;;;0.70;;
69358;SDS011;56520;49.066;8.660;2023-11-21T02:23:03;3.38;;;0.43;;
69358;SDS011;56520;49.066;8.660;2023-11-21T02:25:30;1.70;;;0.57;;
69358;SDS011;56520;49.066;8.660;2023-11-21T02:27:57;2.10;;;0.88;;
69358;SDS011;56520;49.066;8.660;2023-11-21T02:30:24;1.92;;;0.40;;
69358;SDS011;56520;49.066;8.660;2023-11-21T02:32:50;1.70;;;0.52;;
69358;SDS011;56520;49.066;8.660;2023-11-21T02:35:18;1.25;;;0.38;;
69358;SDS011;56520;49.066;8.660;2023-11-21T02:37:46;0.30;;;0.30;;
69358;SDS011;56520;49.066;8.660;2023-11-21T02:40:14;0.45;;;0.32;;
69358;SDS011;56520;49.066;8.660;2023-11-21T02:42:45;1.50;;;0.50;;
69358;SDS011;56520;49.066;8.660;2023-11-21T02:45:12;0.75;;;0.43;;
69358;SDS011;56520;49.066;8.660;2023-11-21T02:47:42;1.95;;;0.50;;
69358;SDS011;56520;49.066;8.660;2023-11-21T02:50:10;1.23;;;0.50;;
69358;SDS011;56520;49.066;8.660;2023-11-21T02:52:36;0.65;;;0.50;;
69358;SDS011;56520;49.066;8.660;2023-11-21T02:55:02;2.08;;;0.77;;
69358;SDS011;56520;49.066;8.660;2023-11-21T02:57:28;7.38;;;0.60;;
69358;SDS011;56520;49.066;8.660;2023-11-21T02:59:53;1.20;;;0.55;;
69358;SDS011;56520;49.066;8.660;2023-11-21T03:02:19;2.17;;;0.55;;
69358;SDS011;56520;49.066;8.660;2023-11-21T03:04:45;1.10;;;0.50;;
69358;SDS011;56520;49.066;8.660;2023-11-21T03:07:10;0.98;;;0.38;;
69358;SDS011;56520;49.066;8.660;2023-11-21T03:09:35;0.55;;;0.45;;
69358;SDS011;56520;49.066;8.660;2023-11-21T03:12:01;0.98;;;0.40;;
69358;SDS011;56520;49.066;8.660;2023-11-21T03:14:27;4.03;;;0.80;;
69358;SDS011;56520;49.066;8.660;2023-11-21T03:16:52;2.22;;;0.57;;
69358;SDS011;56520;49.066;8.660;2023-11-21T03:19:18;7.53;;;0.40;;
69358;SDS011;56520;49.066;8.660;2023-11-21T03:21:43;1.98;;;0.60;;
69358;SDS011;56520;49.066;8.660;2023-11-21T03:24:08;1.88;;;0.50;;
69358;SDS011;56520;49.066;8.660;2023-11-21T03:26:34;1.50;;;0.43;;
69358;SDS011;56520;49.066;8.660;2023-11-21T03:28:59;0.28;;;0.28;;
69358;SDS011;56520;49.066;8.660;2023-11-21T03:31:25;0.77;;;0.40;;
69358;SDS011;56520;49.066;8.660;2023-11-21T03:33:51;0.75;;;0.32;;
69358;SDS011;56520;49.066;8.660;2023-11-21T03:36:18;0.77;;;0.28;;
69358;SDS011;56520;49.066;8.660;2023-11-21T03:38:44;3.30;;;0.40;;
69358;SDS011;56520;49.066;8.660;2023-11-21T03:41:09;0.80;;;0.40;;
69358;SDS011;56520;49.066;8.660;2023-11-21T03:43:35;1.40;;;0.40;;
69358;SDS011;56520;49.066;8.660;2023-11-21T03:46:01;0.98;;;0.32;;
69358;SDS011;56520;49.066;8.660;2023-11-21T03:48:27;0.73;;;0.47;;
69358;SDS011;56520;49.066;8.660;2023-11-21T03:50:52;1.95;;;0.80;;
69358;SDS011;56520;49.066;8.660;2023-11-21T03:53:18;0.30;;;0.30;;
69358;SDS011;56520;49.066;8.660;2023-11-21T03:55:43;2.08;;;0.55;;
69358;SDS011;56520;49.066;8.660;2023-11-21T03:58:09;1.70;;;0.57;;
69358;SDS011;56520;49.066;8.660;2023-11-21T04:00:34;5.78;;;0.60;;
69358;SDS011;56520;49.066;8.660;2023-11-21T04:02:59;1.70;;;0.80;;
69358;SDS011;56520;49.066;8.660;2023-11-21T04:05:25;2.80;;;0.50;;
69358;SDS011;56520;49.066;8.660;2023-11-21T04:07:50;2.33;;;0.93;;
69358;SDS011;56520;49.066;8.660;2023-11-21T04:10:16;2.00;;;0.50;;
69358;SDS011;56520;49.066;8.660;2023-11-21T04:12:43;2.63;;;0.80;;
69358;SDS011;56520;49.066;8.660;2023-11-21T04:15:09;2.92;;;1.00;;
69358;SDS011;56520;49.066;8.660;2023-11-21T04:17:35;2.08;;;0.57;;
69358;SDS011;56520;49.066;8.660;2023-11-21T04:20:01;2.03;;;0.50;;
69358;SDS011;56520;49.066;8.660;2023-11-21T04:22:28;1.48;;;0.63;;
69358;SDS011;56520;49.066;8.660;2023-11-21T04:24:53;1.60;;;0.50;;
69358;SDS011;56520;49.066;8.660;2023-11-21T04:27:20;2.58;;;0.50;;
69358;SDS011;56520;49.066;8.660;2023-11-21T04:29:46;1.65;;;0.50;;
69358;SDS011;56520;49.066;8.660;2023-11-21T04:32:11;1.73;;;0.60;;
69358;SDS011;56520;49.066;8.660;2023-11-21T04:34:37;0.82;;;0.40;;
69358;SDS011;56520;49.066;8.660;2023-11-21T04:37:03;1.15;;;0.50;;
69358;SDS011;56520;49.066;8.660;2023-11-21T04:39:31;1.20;;;0.52;;
69358;SDS011;56520;49.066;8.660;2023-11-21T04:41:56;1.55;;;0.55;;
69358;SDS011;56520;49.066;8.660;2023-11-21T04:44:22;3.13;;;0.90;;
69358;SDS011;56520;49.066;8.660;2023-11-21T04:46:47;2.00;;;0.40;;
69358;SDS011;56520;49.066;8.660;2023-11-21T04:49:12;2.80;;;0.60;;
69358;SDS011;56520;49.066;8.660;2023-11-21T04:51:39;1.15;;;0.47;;
69358;SDS011;56520;49.066;8.660;2023-11-21T04:54:04;2.10;;;0.45;;
69358;SDS011;56520;49.066;8.660;2023-11-21T04:56:30;1.38;;;0.55;;
69358;SDS011;56520;49.066;8.660;2023-11-21T04:58:56;1.17;;;0.43;;
69358;SDS011;56520;49.066;8.660;2023-11-21T05:01:21;0.63;;;0.43;;
69358;SDS011;56520;49.066;8.660;2023-11-21T05:03:47;0.75;;;0.43;;
69358;SDS011;56520;49.066;8.660;2023-11-21T05:06:13;5.50;;;0.70;;
69358;SDS011;56520;49.066;8.660;2023-11-21T05:08:39;2.63;;;1.02;;
69358;SDS011;56520;49.066;8.660;2023-11-21T05:11:04;1.50;;;0.60;;
69358;SDS011;56520;49.066;8.660;2023-11-21T05:13:33;1.55;;;0.60;;
69358;SDS011;56520;49.066;8.660;2023-11-21T05:15:59;2.90;;;0.55;;
69358;SDS011;56520;49.066;8.660;2023-11-21T05:18:24;2.78;;;0.60;;
69358;SDS011;56520;49.066;8.660;2023-11-21T05:20:52;3.35;;;0.60;;
69358;SDS011;56520;49.066;8.660;2023-11-21T05:23:18;3.00;;;1.23;;
69358;SDS011;56520;49.066;8.660;2023-11-21T05:25:44;1.60;;;0.70;;
69358;SDS011;56520;49.066;8.660;2023-11-21T05:28:11;1.50;;;0.68;;
69358;SDS011;56520;49.066;8.660;2023-11-21T05:30:36;2.13;;;0.70;;
69358;SDS011;56520;49.066;8.660;2023-11-21T05:33:04;3.55;;;0.70;;
69358;SDS011;56520;49.066;8.660;2023-11-21T05:35:29;1.63;;;0.63;;
69358;SDS011;56520;49.066;8.660;2023-11-21T05:37:55;1.80;;;0.70;;
69358;SDS011;56520;49.066;8.660;2023-11-21T05:40:20;1.55;;;0.70;;
69358;SDS011;56520;49.066;8.660;2023-11-21T05:42:47;3.22;;;0.90;;
69358;SDS011;56520;49.066;8.660;2023-11-21T05:45:13;3.25;;;0.90;;
69358;SDS011;56520;49.066;8.660;2023-11-21T05:47:40;3.50;;;0.98;;
69358;SDS011;56520;49.066;8.660;2023-11-21T05:50:10;2.65;;;0.98;;
69358;SDS011;56520;49.066;8.660;2023-11-21T05:52:39;3.30;;;1.20;;
69358;SDS011;56520;49.066;8.660;2023-11-21T05:55:06;2.65;;;0.85;;
69358;SDS011;56520;49.066;8.660;2023-11-21T05:57:33;4.80;;;1.30;;
69358;SDS011;56520;49.066;8.660;2023-11-21T05:59:59;3.83;;;1.30;;
69358;SDS011;56520;49.066;8.660;2023-11-21T06:02:25;5.40;;;1.60;;
69358;SDS011;56520;49.066;8.660;2023-11-21T06:04:50;4.25;;;1.60;;
69358;SDS011;56520;49.066;8.660;2023-11-21T06:07:16;5.72;;;1.52;;
69358;SDS011;56520;49.066;8.660;2023-11-21T06:09:42;4.60;;;1.52;;
69358;SDS011;56520;49.066;8.660;2023-11-21T06:12:07;4.35;;;1.52;;
69358;SDS011;56520;49.066;8.660;2023-11-21T06:14:32;4.15;;;1.55;;
69358;SDS011;56520;49.066;8.660;2023-11-21T06:17:00;3.15;;;0.90;;
69358;SDS011;56520;49.066;8.660;2023-11-21T06:19:25;4.47;;;1.10;;
69358;SDS011;56520;49.066;8.660;2023-11-21T06:21:51;4.32;;;1.27;;
69358;SDS011;56520;49.066;8.660;2023-11-21T06:24:16;4.20;;;1.00;;
69358;SDS011;56520;49.066;8.660;2023-11-21T06:26:41;2.67;;;0.80;;
69358;SDS011;56520;49.066;8.660;2023-11-21T06:29:07;2.65;;;0.93;;
69358;SDS011;56520;49.066;8.660;2023-11-21T06:31:32;4.10;;;1.20;;
69358;SDS011;56520;49.066;8.660;2023-11-21T06:33:58;3.83;;;1.10;;
69358;SDS011;56520;49.066;8.660;2023-11-21T06:36:24;3.63;;;1.30;;
69358;SDS011;56520;49.066;8.660;2023-11-21T06:38:51;2.10;;;0.90;;
69358;SDS011;56520;49.066;8.660;2023-11-21T06:41:17;4.70;;;1.63;;
69358;SDS011;56520;49.066;8.660;2023-11-21T06:43:42;4.30;;;1.67;;
69358;SDS011;56520;49.066;8.660;2023-11-21T06:46:11;6.97;;;1.60;;
69358;SDS011;56520;49.066;8.660;2023-11-21T06:48:39;2.60;;;1.05;;
69358;SDS011;56520;49.066;8.660;2023-11-21T06:51:07;4.00;;;1.30;;
69358;SDS011;56520;49.066;8.660;2023-11-21T06:53:32;3.42;;;1.17;;
69358;SDS011;56520;49.066;8.660;2023-11-21T06:55:57;2.30;;;0.77;;
69358;SDS011;56520;49.066;8.660;2023-11-21T06:58:23;2.75;;;1.10;;
69358;SDS011;56520;49.066;8.660;2023-11-21T07:00:49;4.50;;;1.20;;
69358;SDS011;56520;49.066;8.660;2023-11-21T07:03:15;1.95;;;0.90;;
69358;SDS011;56520;49.066;8.660;2023-11-21T07:05:40;2.17;;;0.77;;
69358;SDS011;56520;49.066;8.660;2023-11-21T07:08:06;3.53;;;0.90;;
69358;SDS011;56520;49.066;8.660;2023-11-21T07:10:32;2.20;;;0.90;;
69358;SDS011;56520;49.066;8.660;2023-11-21T07:12:58;1.35;;;0.70;;
69358;SDS011;56520;49.066;8.660;2023-11-21T07:15:23;2.05;;;0.90;;
69358;SDS011;56520;49.066;8.660;2023-11-21T07:17:50;1.77;;;0.70;;
69358;SDS011;56520;49.066;8.660;2023-11-21T07:20:16;2.10;;;0.80;;
69358;SDS011;56520;49.066;8.660;2023-11-21T07:22:42;2.63;;;0.90;;
69358;SDS011;56520;49.066;8.660;2023-11-21T07:25:07;1.08;;;0.50;;
69358;SDS011;56520;49.066;8.660;2023-11-21T07:27:34;1.15;;;0.52;;
69358;SDS011;56520;49.066;8.660;2023-11-21T07:30:01;2.17;;;0.75;;
69358;SDS011;56520;49.066;8.660;2023-11-21T07:32:29;1.95;;;0.77;;
69358;SDS011;56520;49.066;8.660;2023-11-21T07:34:55;2.25;;;0.88;;
69358;SDS011;56520;49.066;8.660;2023-11-21T07:37:22;1.85;;;0.75;;
69358;SDS011;56520;49.066;8.660;2023-11-21T07:39:49;1.48;;;0.60;;
69358;SDS011;56520;49.066;8.660;2023-11-21T07:42:15;12.63;;;0.80;;
69358;SDS011;56520;49.066;8.660;2023-11-21T07:44:41;1.63;;;0.70;;
69358;SDS011;56520;49.066;8.660;2023-11-21T07:47:07;1.88;;;0.82;;
69358;SDS011;56520;49.066;8.660;2023-11-21T07:49:32;1.33;;;0.70;;
69358;SDS011;56520;49.066;8.660;2023-11-21T07:51:57;1.35;;;0.68;;
69358;SDS011;56520;49.066;8.660;2023-11-21T07:54:23;2.22;;;0.98;;
69358;SDS011;56520;49.066;8.660;2023-11-21T07:56:48;2.15;;;0.80;;
69358;SDS011;56520;49.066;8.660;2023-11-21T07:59:13;1.40;;;0.70;;
69358;SDS011;56520;49.066;8.660;2023-11-21T08:01:39;2.75;;;1.10;;
69358;SDS011;56520;49.066;8.660;2023-11-21T08:04:08;3.53;;;1.17;;
69358;SDS011;56520;49.066;8.660;2023-11-21T08:06:33;3.17;;;1.20;;
69358;SDS011;56520;49.066;8.660;2023-11-21T08:08:59;3.20;;;0.93;;
69358;SDS011;56520;49.066;8.660;2023-11-21T08:11:24;3.05;;;1.08;;
69358;SDS011;56520;49.066;8.660;2023-11-21T08:13:51;2.78;;;1.10;;
69358;SDS011;56520;49.066;8.660;2023-11-21T08:16:16;6.03;;;1.60;;
69358;SDS011;56520;49.066;8.660;2023-11-21T08:18:42;3.95;;;1.45;;
69358;SDS011;56520;49.066;8.660;2023-11-21T08:21:07;5.18;;;1.80;;
69358;SDS011;56520;49.066;8.660;2023-11-21T08:23:33;5.72;;;2.20;;
69358;SDS011;56520;49.066;8.660;2023-11-21T08:25:59;4.60;;;1.80;;
69358;SDS011;56520;49.066;8.660;2023-11-21T08:28:25;4.57;;;1.45;;
69358;SDS011;56520;49.066;8.660;2023-11-21T08:30:53;4.35;;;1.42;;
69358;SDS011;56520;49.066;8.660;2023-11-21T08:33:21;3.20;;;1.15;;
69358;SDS011;56520;49.066;8.660;2023-11-21T08:35:47;2.60;;;1.10;;
69358;SDS011;56520;49.066;8.660;2023-11-21T08:38:13;5.20;;;1.65;;
69358;SDS011;56520;49.066;8.660;2023-11-21T08:40:39;4.47;;;1.70;;
69358;SDS011;56520;49.066;8.660;2023-11-21T08:43:04;3.90;;;1.55;;
69358;SDS011;56520;49.066;8.660;2023-11-21T08:45:30;3.97;;;1.20;;
69358;SDS011;56520;49.066;8.660;2023-11-21T08:47:56;3.83;;;1.35;;
69358;SDS011;56520;49.066;8.660;2023-11-21T08:50:21;4.15;;;1.20;;
69358;SDS011;56520;49.066;8.660;2023-11-21T08:52:47;3.58;;;1.38;;
69358;SDS011;56520;49.066;8.660;2023-11-21T08:55:12;3.20;;;1.23;;
69358;SDS011;56520;49.066;8.660;2023-11-21T08:57:38;3.92;;;1.25;;
69358;SDS011;56520;49.066;8.660;2023-11-21T09:00:06;5.38;;;1.50;;
69358;SDS011;56520;49.066;8.660;2023-11-21T09:02:39;4.85;;;1.90;;
69358;SDS011;56520;49.066;8.660;2023-11-21T09:05:08;5.03;;;2.00;;
69358;SDS011;56520;49.066;8.660;2023-11-21T09:07:34;6.63;;;1.70;;
69358;SDS011;56520;49.066;8.660;2023-11-21T09:10:01;5.28;;;1.75;;
69358;SDS011;56520;49.066;8.660;2023-11-21T09:12:28;5.85;;;1.92;;
69358;SDS011;56520;49.066;8.660;2023-11-21T09:14:53;4.20;;;1.40;;
69358;SDS011;56520;49.066;8.660;2023-11-21T09:17:19;4.22;;;1.40;;
69358;SDS011;56520;49.066;8.660;2023-11-21T09:19:44;5.85;;;2.30;;
69358;SDS011;56520;49.066;8.660;2023-11-21T09:22:14;7.32;;;2.17;;
69358;SDS011;56520;49.066;8.660;2023-11-21T09:24:40;9.25;;;3.20;;
69358;SDS011;56520;49.066;8.660;2023-11-21T09:27:05;7.47;;;2.85;;
69358;SDS011;56520;49.066;8.660;2023-11-21T09:29:31;6.88;;;2.60;;
69358;SDS011;56520;49.066;8.660;2023-11-21T09:31:57;10.38;;;3.08;;
69358;SDS011;56520;49.066;8.660;2023-11-21T09:34:24;7.72;;;3.00;;
69358;SDS011;56520;49.066;8.660;2023-11-21T09:36:50;7.28;;;2.58;;
69358;SDS011;56520;49.066;8.660;2023-11-21T09:39:16;8.60;;;3.42;;
69358;SDS011;56520;49.066;8.660;2023-11-21T09:41:43;8.20;;;3.03;;
69358;SDS011;56520;49.066;8.660;2023-11-21T09:44:14;10.43;;;3.65;;
69358;SDS011;56520;49.066;8.660;2023-11-21T09:46:43;8.98;;;3.70;;
69358;SDS011;56520;49.066;8.660;2023-11-21T09:49:17;10.68;;;3.58;;
69358;SDS011;56520;49.066;8.660;2023-11-21T09:51:45;8.90;;;3.50;;
69358;SDS011;56520;49.066;8.660;2023-11-21T09:54:12;7.32;;;2.83;;
69358;SDS011;56520;49.066;8.660;2023-11-21T09:56:41;8.55;;;2.95;;
69358;SDS011;56520;49.066;8.660;2023-11-21T09:59:07;7.00;;;2.90;;
69358;SDS011;56520;49.066;8.660;2023-11-21T10:01:38;7.43;;;3.08;;
69358;SDS011;56520;49.066;8.660;2023-11-21T10:04:05;7.03;;;2.88;;
69358;SDS011;56520;49.066;8.660;2023-11-21T10:06:36;6.05;;;2.17;;
69358;SDS011;56520;49.066;8.660;2023-11-21T10:09:04;7.80;;;2.78;;
69358;SDS011;56520;49.066;8.660;2023-11-21T10:11:36;8.10;;;2.97;;
69358;SDS011;56520;49.066;8.660;2023-11-21T10:14:07;7.38;;;2.50;;
69358;SDS011;56520;49.066;8.660;2023-11-21T10:16:35;6.88;;;2.67;;
69358;SDS011;56520;49.066;8.660;2023-11-21T10:19:02;7.05;;;2.95;;
69358;SDS011;56520;49.066;8.660;2023-11-21T10:21:29;8.60;;;3.35;;
69358;SDS011;56520;49.066;8.660;2023-11-21T10:23:55;7.15;;;2.95;;
69358;SDS011;56520;49.066;8.660;2023-11-21T10:26:20;7.72;;;3.42;;
69358;SDS011;56520;49.066;8.660;2023-11-21T10:28:55;6.85;;;2.78;;
69358;SDS011;56520;49.066;8.660;2023-11-21T10:31:25;7.97;;;3.30;;
69358;SDS011;56520;49.066;8.660;2023-11-21T10:33:52;8.10;;;3.00;;
69358;SDS011;56520;49.066;8.660;2023-11-21T10:36:26;7.63;;;3.08;;
69358;SDS011;56520;49.066;8.660;2023-11-21T10:38:53;8.20;;;3.03;;
69358;SDS011;56520;49.066;8.660;2023-11-21T10:41:19;7.07;;;3.08;;
69358;SDS011;56520;49.066;8.660;2023-11-21T10:43:45;7.45;;;2.97;;
69358;SDS011;56520;49.066;8.660;2023-11-21T10:46:11;8.88;;;3.45;;
69358;SDS011;56520;49.066;8.660;2023-11-21T10:48:36;8.48;;;3.15;;
69358;SDS011;56520;49.066;8.660;2023-11-21T10:51:06;7.88;;;3.20;;
69358;SDS011;56520;49.066;8.660;2023-11-21T10:53:38;7.57;;;3.08;;
69358;SDS011;56520;49.066;8.660;2023-11-21T10:56:07;6.35;;;2.28;;
69358;SDS011;56520;49.066;8.660;2023-11-21T10:58:35;7.15;;;2.90;;
69358;SDS011;56520;49.066;8.660;2023-11-21T11:01:03;7.22;;;2.65;;
69358;SDS011;56520;49.066;8.660;2023-11-21T11:03:31;6.32;;;2.45;;
69358;SDS011;56520;49.066;8.660;2023-11-21T11:05:58;6.30;;;2.33;;
69358;SDS011;56520;49.066;8.660;2023-11-21T11:08:24;7.20;;;2.75;;
69358;SDS011;56520;49.066;8.660;2023-11-21T11:10:52;6.72;;;2.50;;
69358;SDS011;56520;49.066;8.660;2023-11-21T11:13:18;6.20;;;2.45;;
69358;SDS011;56520;49.066;8.660;2023-11-21T11:15:47;9.88;;;2.85;;
69358;SDS011;56520;49.066;8.660;2023-11-21T11:18:12;5.63;;;2.10;;
69358;SDS011;56520;49.066;8.660;2023-11-21T11:20:39;6.22;;;2.45;;
69358;SDS011;56520;49.066;8.660;2023-11-21T11:23:20;6.18;;;2.13;;
69358;SDS011;56520;49.066;8.660;2023-11-21T11:34:48;4.95;;;2.22;;
69358;SDS011;56520;49.066;8.660;2023-11-21T11:37:20;9.10;;;2.70;;
69358;SDS011;56520;49.066;8.660;2023-11-21T11:39:47;6.05;;;2.40;;
69358;SDS011;56520;49.066;8.660;2023-11-21T11:42:15;7.32;;;2.50;;
69358;SDS011;56520;49.066;8.660;2023-11-21T11:47:26;6.82;;;2.80;;
69358;SDS011;56520;49.066;8.660;2023-11-21T11:52:41;5.40;;;1.15;;
69358;SDS011;56520;49.066;8.660;2023-11-21T11:55:14;4.05;;;1.20;;
69358;SDS011;56520;49.066;8.660;2023-11-21T11:57:44;3.17;;;1.05;;
69358;SDS011;56520;49.066;8.660;2023-11-21T12:00:35;3.22;;;1.20;;
69358;SDS011;56520;49.066;8.660;2023-11-21T12:03:05;3.35;;;1.00;;
69358;SDS011;56520;49.066;8.660;2023-11-21T12:05:33;2.22;;;0.93;;
69358;SDS011;56520;49.066;8.660;2023-11-21T12:08:09;2.72;;;0.93;;
69358;SDS011;56520;49.066;8.660;2023-11-21T12:10:36;1.70;;;0.65;;
69358;SDS011;56520;49.066;8.660;2023-11-21T12:13:08;2.70;;;0.88;;
69358;SDS011;56520;49.066;8.660;2023-11-21T12:15:35;1.83;;;0.73;;
69358;SDS011;56520;49.066;8.660;2023-11-21T12:18:01;1.88;;;0.70;;
69358;SDS011;56520;49.066;8.660;2023-11-21T12:20:27;1.88;;;0.65;;
69358;SDS011;56520;49.066;8.660;2023-11-21T12:22:54;0.80;;;0.50;;
69358;SDS011;56520;49.066;8.660;2023-11-21T12:25:24;1.83;;;0.70;;
69358;SDS011;56520;49.066;8.660;2023-11-21T12:27:53;1.23;;;0.60;;
69358;SDS011;56520;49.066;8.660;2023-11-21T12:30:23;0.68;;;0.35;;
69358;SDS011;56520;49.066;8.660;2023-11-21T12:32:53;1.42;;;0.60;;
69358;SDS011;56520;49.066;8.660;2023-11-21T12:35:21;0.70;;;0.38;;
69358;SDS011;56520;49.066;8.660;2023-11-21T12:37:49;1.23;;;0.57;;
69358;SDS011;56520;49.066;8.660;2023-11-21T12:40:17;0.90;;;0.35;;
69358;SDS011;56520;49.066;8.660;2023-11-21T12:42:44;0.98;;;0.50;;
69358;SDS011;56520;49.066;8.660;2023-11-21T12:47:46;0.73;;;0.40;;
69358;SDS011;56520;49.066;8.660;2023-11-21T12:50:20;2.53;;;0.60;;
69358;SDS011;56520;49.066;8.660;2023-11-21T12:52:53;0.30;;;0.30;;
69358;SDS011;56520;49.066;8.660;2023-11-21T12:55:23;1.02;;;0.40;;
69358;SDS011;56520;49.066;8.660;2023-11-21T12:57:50;1.80;;;0.57;;
69358;SDS011;56520;49.066;8.660;2023-11-21T13:00:18;0.82;;;0.50;;
69358;SDS011;56520;49.066;8.660;2023-11-21T13:02:56;1.38;;;0.70;;
69358;SDS011;56520;49.066;8.660;2023-11-21T13:05:27;2.60;;;0.90;;
69358;SDS011;56520;49.066;8.660;2023-11-21T13:07:57;2.80;;;0.98;;
69358;SDS011;56520;49.066;8.660;2023-11-21T13:10:25;1.92;;;0.90;;
69358;SDS011;56520;49.066;8.660;2023-11-21T13:12:55;1.88;;;0.80;;
69358;SDS011;56520;49.066;8.660;2023-11-21T13:15:30;3.10;;;1.05;;
69358;SDS011;56520;49.066;8.660;2023-11-21T13:17:57;3.10;;;1.13;;
69358;SDS011;56520;49.066;8.660;2023-11-21T13:20:26;3.80;;;1.40;;
69358;SDS011;56520;49.066;8.660;2023-11-21T13:22:53;2.33;;;1.10;;
69358;SDS011;56520;49.066;8.660;2023-11-21T13:25:22;2.85;;;0.90;;
69358;SDS011;56520;49.066;8.660;2023-11-21T13:27:48;2.72;;;0.90;;
69358;SDS011;56520;49.066;8.660;2023-11-21T13:30:14;3.97;;;1.40;;
69358;SDS011;56520;49.066;8.660;2023-11-21T13:32:41;4.63;;;1.52;;
69358;SDS011;56520;49.066;8.660;2023-11-21T13:35:08;4.68;;;1.50;;
69358;SDS011;56520;49.066;8.660;2023-11-21T13:37:40;4.32;;;1.45;;
69358;SDS011;56520;49.066;8.660;2023-11-21T13:40:05;4.63;;;1.70;;
69358;SDS011;56520;49.066;8.660;2023-11-21T13:42:39;4.38;;;1.42;;
69358;SDS011;56520;49.066;8.660;2023-11-21T13:45:06;5.03;;;1.50;;
69358;SDS011;56520;49.066;8.660;2023-11-21T13:47:31;5.10;;;1.88;;
69358;SDS011;56520;49.066;8.660;2023-11-21T13:49:59;6.43;;;1.90;;
69358;SDS011;56520;49.066;8.660;2023-11-21T13:52:25;3.67;;;1.40;;
69358;SDS011;56520;49.066;8.660;2023-11-21T13:54:52;4.57;;;1.75;;
69358;SDS011;56520;49.066;8.660;2023-11-21T13:57:18;5.97;;;1.70;;
69358;SDS011;56520;49.066;8.660;2023-11-21T13:59:45;4.90;;;1.60;;
69358;SDS011;56520;49.066;8.660;2023-11-21T14:02:10;5.28;;;1.60;;
69358;SDS011;56520;49.066;8.660;2023-11-21T14:04:58;5.25;;;1.60;;
69358;SDS011;56520;49.066;8.660;2023-11-21T14:07:25;3.30;;;1.20;;
69358;SDS011;56520;49.066;8.660;2023-11-21T14:10:00;3.08;;;1.20;;
69358;SDS011;56520;49.066;8.660;2023-11-21T14:12:26;4.85;;;1.45;;
69358;SDS011;56520;49.066;8.660;2023-11-21T14:14:53;4.45;;;1.20;;
69358;SDS011;56520;49.066;8.660;2023-11-21T14:17:19;4.10;;;1.20;;
69358;SDS011;56520;49.066;8.660;2023-11-21T14:19:47;3.08;;;1.20;;
69358;SDS011;56520;49.066;8.660;2023-11-21T14:22:14;4.50;;;1.30;;
69358;SDS011;56520;49.066;8.660;2023-11-21T14:24:39;3.75;;;1.20;;
69358;SDS011;56520;49.066;8.660;2023-11-21T14:27:11;3.50;;;1.20;;
69358;SDS011;56520;49.066;8.660;2023-11-21T14:29:37;4.85;;;1.48;;
69358;SDS011;56520;49.066;8.660;2023-11-21T14:32:04;3.85;;;1.35;;
69358;SDS011;56520;49.066;8.660;2023-11-21T14:34:30;5.22;;;1.88;;
69358;SDS011;56520;49.066;8.660;2023-11-21T14:36:56;4.03;;;1.30;;
69358;SDS011;56520;49.066;8.660;2023-11-21T14:39:22;3.90;;;1.40;;
69358;SDS011;56520;49.066;8.660;2023-11-21T14:41:54;5.15;;;1.45;;
69358;SDS011;56520;49.066;8.660;2023-11-21T14:44:24;4.18;;;1.40;;
69358;SDS011;56520;49.066;8.660;2023-11-21T14:46:52;3.72;;;1.30;;
69358;SDS011;56520;49.066;8.660;2023-11-21T14:49:19;3.78;;;1.33;;
69358;SDS011;56520;49.066;8.660;2023-11-21T14:51:49;4.65;;;1.52;;
69358;SDS011;56520;49.066;8.660;2023-11-21T14:54:26;4.05;;;1.40;;
69358;SDS011;56520;49.066;8.660;2023-11-21T14:57:15;5.68;;;1.45;;
69358;SDS011;56520;49.066;8.660;2023-11-21T14:59:44;3.97;;;1.27;;
69358;SDS011;56520;49.066;8.660;2023-11-21T15:02:16;4.70;;;1.30;;
69358;SDS011;56520;49.066;8.660;2023-11-21T15:04:47;3.00;;;1.10;;